• Join FlightAware (Why Join?)
  • Login
  • US Flag 
11:46AM EDT


 

Airport Tracker/Info


-or-


 

Live Flight TrackerFlight Track Log ✈ UCA809 ✈ 30-Dec-2013 ✈ KCLE - KPIT

Flight Track Log - Related Links

Times and Time Zones

All times are in EST time to prevent confusion due to time zone crossing. See the UCA809 flight status page for this flight to view local times or setup timezone preferences in your user account.

Time Position Orientation Groundspeed Altitude Reporting Facility
EST Latitude Longitude Course Direction KTS MPH feet Rate Location/Type
04:29PM 41.4128 -81.8453 119° Southeast 127 146 1,800  Level Cleveland Center
04:29PM 41.4139 -81.8317 84° East 125 144 2,200 1,080 Climbing Cleveland Center
04:30PM 41.4125 -81.7889 92° East 150 173 3,100 1,200 Climbing Cleveland Center
04:30PM 41.4108 -81.7725 98° East 179 206 3,400 1,320 Climbing Cleveland Center
04:31PM 41.4103 -81.7214 91° East 168 193 4,500 1,440 Climbing Cleveland Center
04:31PM 41.4022 -81.7069 127° Southeast 193 222 4,900 1,320 Climbing Cleveland Center
04:32PM 41.3750 -81.6661 132° Southeast 185 213 5,900 1,080 Climbing Cleveland Center
04:32PM 41.3653 -81.6508 130° Southeast 189 217 6,000 540 Climbing Cleveland Center
04:33PM 41.3378 -81.6014 127° Southeast 211 243 6,500 780 Climbing Cleveland Center
04:34PM 41.3000 -81.5331 126° Southeast 222 255 7,600 1,200 Climbing Cleveland Center
04:35PM 41.1850 -81.4502 119° Southeast  Level Estimated
04:35PM 41.2550 -81.4558 128° Southeast 223 257 9,000  Level Cleveland Center
04:36PM 41.2136 -81.3842 127° Southeast 239 275 9,000  Level Cleveland Center
04:37PM 41.1667 -81.3042 128° Southeast 267 307 9,000  Level Cleveland Center
04:39PM 41.1211 -81.2242 127° Southeast 268 308 9,000  Level Cleveland Center
04:40PM 41.0825 -81.1411 122° Southeast 265 305 9,000  Level Cleveland Center
04:41PM 41.0481 -81.0533 117° Southeast 266 306 9,000  Level Cleveland Center
04:42PM 41.0117 -80.9708 120° Southeast 268 308 9,000  Level Cleveland Center
04:43PM 40.9772 -80.8853 118° Southeast 266 306 9,000  Level Cleveland Center
04:44PM 40.9417 -80.8000 119° Southeast 265 305 9,000  Level Cleveland Center
04:45PM 40.8992 -80.6994 119° Southeast 263 303 9,000  Level Cleveland Center
04:46PM 40.8597 -80.6211 124° Southeast 259 298 9,000 -480 Level Cleveland Center
04:47PM 40.7989 -80.5550 141° Southeast 264 304 8,100 -960 Descending Cleveland Center
04:48PM 40.7375 -80.4900 141° Southeast 278 320 7,100 -960 Descending Cleveland Center
04:49PM 40.6811 -80.4269 140° Southeast 266 306 6,200 -540 Descending Cleveland Center
04:50PM 40.6278 -80.3686 140° Southeast 249 287 6,000 -120 Descending Cleveland Center
04:51PM 40.5861 -80.3067 132° Southeast 248 285 6,000 -120 Level Cleveland Center
04:52PM 40.5856 -80.2181 90° East 245 282 5,800 -720 Descending Cleveland Center
04:53PM 40.5800 -80.1092 94° East 256 295 4,600 -1,080 Descending Cleveland Center
04:54PM 40.5600 -80.0272 108° East 251 289 3,600 -840 Descending Cleveland Center
04:55PM 40.5022 -80.0228 177° South 225 259 3,000 -300 Descending Cleveland Center
04:56PM 40.4969 -80.0856 264° West 195 224 3,000 -180 Level Cleveland Center
04:57PM 40.4983 -80.1403 272° West 162 186 2,700 -540 Descending Cleveland Center
04:58PM 40.4997 -80.1858 272° West 139 160 2,000 -720 Descending Cleveland Center